Terminal Aerodrome Forecast
Issued by NWS Tampa Bay Area, FL

Home | Current Version | Previous Version | Text Only | Print | Product List | Glossary On
Versions: 1 2 3 4 5 6 7 8 9 10 11 12
000
FTUS42 KTBW 100538
TAFSRQ
TAF
KSRQ 100538Z 1006/1106 32013KT P6SM BKN050
     FM101000 35010KT P6SM BKN050
     FM101300 02010KT P6SM BKN050
     FM101700 32012G18KT P6SM BKN050
     FM110000 32007KT P6SM SCT050=

USA.gov is the U.S. government's official web portal to all federal, state and local government web resources and services.